ROMMA est une association bénévole à but non lucratif. Votre soutien est indispensable : ADHERER à ROMMA ou FAIRE un DON

Miribel-les-Echelles - (38, Isère)

Massif de la Chartreuse (760 m)   Longitude: 05° 41' 54'' E   Latitude: 45° 26' 40'' N Station partenaire n°22
 

Détail journalier du     <<     >>

Température Precipitation Humidité Pression Vent Dir Rafale Dir. rafale Ensol.
Heure (°C) (mm) (%) (hPa) (km/h) (km/h) (min)
01:00 7.209210196NNO18N0
02:00 6.209110193N13NO0
03:00 5.409010192N13NNO0
04:00 4.909210182NNO10N0
05:00 5.608610176N15NNO0
06:00 5.208710174N13NNO0
07:00 4.808810175NNO13NO0
08:00 4.708810174N13N0
09:00 5.908710184N19N60
10:00 6.7085101911NNE19N60
11:00 7.7084101911NNE21N60
12:00 8.508610198NNE19N60
13:00 9.008610197NO19ONO60
14:00 10.308310186NNE19NNE60
15:00 10.307910188NNE23NNE60
16:00 11.107810177NNE23O60
17:00 11.107510176NO19ONO60
18:00 10.507510185NO18O60
19:00 9.408110183NO13NNO30
20:00 8.708610182N13N0
21:00 7.908710192ONO11O0
22:00 6.108910183O13O0
23:00 6.209210182O6O0
minuit 5.709110181NNO3NNO0

Graphique du 03-10-2019

 

Serveur OMMA